createdAt,value
2018-08-22T00:01:02.595Z,21.00
2018-08-22T00:03:30.948Z,21.00
2018-08-22T00:05:59.246Z,21.00
2018-08-22T00:08:32.929Z,21.10
2018-08-22T00:11:01.230Z,21.00
2018-08-22T00:13:29.540Z,21.00
2018-08-22T00:15:57.836Z,21.00
2018-08-22T00:18:26.143Z,21.00
2018-08-22T00:20:54.497Z,21.00
2018-08-22T00:23:22.914Z,20.90
2018-08-22T00:25:51.250Z,20.90
2018-08-22T00:28:19.554Z,20.90
2018-08-22T00:30:47.856Z,20.80
2018-08-22T00:33:16.161Z,20.80
2018-08-22T00:35:44.627Z,20.70
2018-08-22T00:38:12.926Z,20.70
2018-08-22T00:40:41.454Z,20.60
2018-08-22T00:43:09.795Z,20.50
2018-08-22T00:45:38.093Z,20.50
2018-08-22T00:48:06.526Z,20.40
2018-08-22T00:50:34.834Z,20.40
2018-08-22T00:53:03.130Z,20.30
2018-08-22T00:55:31.434Z,20.30
2018-08-22T00:57:59.779Z,20.30
2018-08-22T01:00:28.071Z,20.30
2018-08-22T01:02:56.414Z,20.30
2018-08-22T01:05:24.739Z,20.30
2018-08-22T01:07:53.066Z,20.30
2018-08-22T01:10:21.399Z,20.30
2018-08-22T01:12:49.734Z,20.30
2018-08-22T01:15:18.092Z,20.30
2018-08-22T01:17:46.391Z,20.40
2018-08-22T01:20:14.685Z,20.40
2018-08-22T01:22:42.992Z,20.40
2018-08-22T01:25:11.323Z,20.40
2018-08-22T01:27:44.016Z,20.40
2018-08-22T01:30:12.520Z,20.40
2018-08-22T01:32:40.833Z,20.30
2018-08-22T01:35:09.162Z,20.30
2018-08-22T01:37:37.463Z,20.30
2018-08-22T01:40:05.778Z,20.20
2018-08-22T01:42:34.079Z,20.20
2018-08-22T01:45:02.415Z,20.20
2018-08-22T01:47:30.725Z,20.10
2018-08-22T01:49:59.089Z,20.10
2018-08-22T01:52:27.381Z,20.00
2018-08-22T01:54:55.691Z,19.90
2018-08-22T01:57:24.023Z,19.90
2018-08-22T01:59:52.339Z,19.80
2018-08-22T02:02:20.635Z,19.80
2018-08-22T02:04:48.991Z,19.80
2018-08-22T02:07:17.311Z,19.80
2018-08-22T02:09:45.614Z,19.80
2018-08-22T02:12:13.921Z,19.80
2018-08-22T02:14:42.238Z,19.80
2018-08-22T02:17:10.571Z,19.80
2018-08-22T02:19:38.951Z,19.80
2018-08-22T02:22:07.242Z,19.90
2018-08-22T02:24:35.546Z,19.90
2018-08-22T02:27:03.859Z,19.90
2018-08-22T02:29:32.161Z,19.90
2018-08-22T02:32:00.492Z,19.90
2018-08-22T02:34:28.816Z,19.90
2018-08-22T02:36:57.120Z,19.90
2018-08-22T02:39:25.454Z,19.90
2018-08-22T02:41:53.784Z,19.90
2018-08-22T02:44:22.076Z,19.90
2018-08-22T02:46:50.399Z,19.90
2018-08-22T02:49:18.714Z,19.90
2018-08-22T02:51:47.008Z,19.90
2018-08-22T02:54:15.312Z,20.00
2018-08-22T02:56:43.688Z,20.00
2018-08-22T02:59:12.010Z,20.00
2018-08-22T03:01:40.343Z,20.00
2018-08-22T03:04:08.653Z,20.10
2018-08-22T03:06:36.957Z,20.10
2018-08-22T03:09:06.925Z,20.10
2018-08-22T03:11:35.263Z,20.10
2018-08-22T03:14:03.695Z,20.10
2018-08-22T03:16:32.017Z,20.10
2018-08-22T03:19:00.314Z,20.00
2018-08-22T03:21:28.641Z,20.00
2018-08-22T03:23:56.951Z,20.00
2018-08-22T03:26:25.265Z,19.90
2018-08-22T03:28:53.652Z,20.00
2018-08-22T03:31:21.990Z,19.90
2018-08-22T03:33:50.296Z,19.90
2018-08-22T03:36:18.630Z,19.90
2018-08-22T03:38:46.984Z,19.90
2018-08-22T03:41:15.344Z,19.90
2018-08-22T03:43:43.723Z,19.90
2018-08-22T03:46:12.022Z,19.80
2018-08-22T03:48:40.336Z,19.90
2018-08-22T03:51:08.652Z,19.80
2018-08-22T03:53:36.954Z,19.80
2018-08-22T03:56:05.459Z,19.80
2018-08-22T03:58:33.771Z,19.80
2018-08-22T04:01:02.085Z,19.80
2018-08-22T04:03:30.413Z,19.80
2018-08-22T04:05:58.744Z,19.80
2018-08-22T04:08:27.056Z,19.70
2018-08-22T04:10:55.396Z,19.70
2018-08-22T04:13:23.729Z,19.70
2018-08-22T04:15:52.020Z,19.70
2018-08-22T04:18:20.323Z,19.70
2018-08-22T04:20:48.629Z,19.60
2018-08-22T04:23:16.932Z,19.60
2018-08-22T04:25:45.232Z,19.60
2018-08-22T04:28:13.559Z,19.60
2018-08-22T04:30:41.972Z,19.50
2018-08-22T04:33:10.283Z,19.50
2018-08-22T04:35:38.609Z,19.40
2018-08-22T04:38:06.924Z,19.40
2018-08-22T04:40:35.229Z,19.40
2018-08-22T04:43:03.567Z,19.40
2018-08-22T04:45:32.085Z,19.30
2018-08-22T04:48:00.415Z,19.30
2018-08-22T04:50:28.793Z,19.20
2018-08-22T04:52:57.088Z,19.20
2018-08-22T04:55:25.393Z,19.20
2018-08-22T04:57:53.707Z,19.20
2018-08-22T05:00:22.047Z,19.10
2018-08-22T05:02:50.364Z,19.10
2018-08-22T05:05:18.672Z,19.10
2018-08-22T05:07:46.972Z,19.00
2018-08-22T05:10:15.291Z,19.10
2018-08-22T05:12:43.603Z,19.00
2018-08-22T05:15:11.927Z,19.00
2018-08-22T05:17:40.238Z,19.00
2018-08-22T05:20:08.557Z,19.00
2018-08-22T05:22:36.859Z,19.00
2018-08-22T05:25:05.424Z,19.00
2018-08-22T05:27:33.728Z,19.00
2018-08-22T05:30:02.046Z,19.00
2018-08-22T05:32:30.376Z,19.10
2018-08-22T05:34:58.670Z,19.10
2018-08-22T05:37:26.988Z,19.10
2018-08-22T05:39:55.296Z,19.20
2018-08-22T05:42:23.624Z,19.20
2018-08-22T05:44:52.143Z,19.30
2018-08-22T05:47:20.480Z,19.30
2018-08-22T05:49:48.779Z,19.40
2018-08-22T05:52:17.188Z,19.40
2018-08-22T05:54:45.506Z,19.40
2018-08-22T05:57:13.799Z,19.50
2018-08-22T05:59:42.115Z,19.50
2018-08-22T06:02:10.440Z,19.60
2018-08-22T06:04:38.727Z,19.70
2018-08-22T06:07:07.309Z,19.70
2018-08-22T06:09:35.600Z,19.80
2018-08-22T06:12:03.929Z,19.90
2018-08-22T06:14:32.281Z,19.90
2018-08-22T06:17:00.587Z,20.10
2018-08-22T06:19:28.892Z,20.20
2018-08-22T06:21:57.212Z,20.20
2018-08-22T06:24:25.504Z,20.30
2018-08-22T06:26:53.807Z,20.40
2018-08-22T06:29:22.111Z,20.50
2018-08-22T06:31:50.417Z,20.60
2018-08-22T06:34:18.712Z,20.70
2018-08-22T06:36:47.004Z,20.70
2018-08-22T06:39:15.343Z,20.70
2018-08-22T06:41:43.658Z,20.80
2018-08-22T06:44:12.542Z,20.80
2018-08-22T06:46:40.844Z,20.80
2018-08-22T06:49:09.166Z,20.90
2018-08-22T06:51:37.468Z,21.00
2018-08-22T06:54:05.976Z,21.10
2018-08-22T06:56:34.447Z,21.20
2018-08-22T06:59:02.763Z,21.30
2018-08-22T07:01:31.072Z,21.30
2018-08-22T07:03:59.379Z,21.30
2018-08-22T07:06:27.695Z,21.30
2018-08-22T07:08:56.048Z,21.40
2018-08-22T07:11:24.353Z,21.40
2018-08-22T07:13:52.653Z,21.40
2018-08-22T07:16:20.978Z,21.40
2018-08-22T07:18:49.304Z,21.50
2018-08-22T07:21:17.629Z,21.60
2018-08-22T07:23:45.944Z,21.70
2018-08-22T07:26:14.299Z,21.80
2018-08-22T07:28:42.840Z,22.00
2018-08-22T07:31:11.164Z,22.20
2018-08-22T07:33:39.463Z,22.30
2018-08-22T07:36:07.761Z,22.40
2018-08-22T07:38:36.069Z,22.50
2018-08-22T07:41:04.809Z,22.40
2018-08-22T07:43:33.210Z,22.50
2018-08-22T07:46:01.683Z,22.50
2018-08-22T07:48:30.021Z,22.40
2018-08-22T07:50:58.308Z,22.40
2018-08-22T07:53:26.728Z,22.40
2018-08-22T07:55:55.008Z,22.30
2018-08-22T07:58:23.323Z,22.20
2018-08-22T08:00:51.635Z,22.20
2018-08-22T08:03:19.948Z,22.30
2018-08-22T08:05:48.321Z,22.30
2018-08-22T08:08:16.597Z,22.30
2018-08-22T08:10:44.945Z,22.50
2018-08-22T08:13:19.055Z,22.60
2018-08-22T08:15:47.355Z,22.80
2018-08-22T08:18:15.671Z,22.90
2018-08-22T08:20:43.983Z,22.90
2018-08-22T08:23:12.349Z,23.00
2018-08-22T08:25:40.667Z,23.00
2018-08-22T08:28:08.991Z,23.00
2018-08-22T08:30:37.343Z,23.00
2018-08-22T08:33:06.098Z,22.90
2018-08-22T08:35:34.426Z,22.80
2018-08-22T08:38:02.735Z,22.80
2018-08-22T08:40:31.071Z,22.90
2018-08-22T08:42:59.424Z,23.00
2018-08-22T08:45:27.708Z,23.10
2018-08-22T08:47:56.028Z,23.10
2018-08-22T08:50:24.349Z,23.20
2018-08-22T08:52:52.684Z,23.20
2018-08-22T08:55:21.054Z,23.20
2018-08-22T08:57:49.382Z,23.30
2018-08-22T09:00:17.705Z,23.50
2018-08-22T09:02:46.094Z,23.70
2018-08-22T09:05:14.418Z,23.90
2018-08-22T09:07:42.724Z,24.10
2018-08-22T09:10:11.040Z,24.20
2018-08-22T09:12:39.341Z,24.30
2018-08-22T09:15:08.106Z,24.40
2018-08-22T09:17:36.448Z,24.50
2018-08-22T09:20:05.868Z,24.50
2018-08-22T09:22:34.197Z,24.50
2018-08-22T09:25:02.511Z,24.50
2018-08-22T09:27:30.922Z,24.60
2018-08-22T09:29:59.240Z,24.60
2018-08-22T09:32:27.722Z,24.70
2018-08-22T09:34:56.079Z,24.70
2018-08-22T09:37:24.433Z,24.60
2018-08-22T09:39:53.012Z,24.60
2018-08-22T09:42:21.240Z,24.60
2018-08-22T09:44:49.607Z,24.70
2018-08-22T09:47:17.981Z,24.80
2018-08-22T09:49:46.327Z,25.00
2018-08-22T09:52:14.655Z,25.20
2018-08-22T09:54:56.099Z,25.30
2018-08-22T09:57:25.791Z,25.30
2018-08-22T09:59:54.125Z,25.10
2018-08-22T10:02:22.659Z,24.90
2018-08-22T10:04:51.140Z,24.80
2018-08-22T10:07:19.472Z,24.80
2018-08-22T10:09:47.841Z,24.80
2018-08-22T10:12:16.180Z,24.90
2018-08-22T10:14:44.494Z,25.00
2018-08-22T10:17:12.844Z,25.00
2018-08-22T10:19:41.296Z,25.00
2018-08-22T10:22:09.544Z,25.00
2018-08-22T10:24:37.860Z,25.10
2018-08-22T10:27:06.164Z,25.30
2018-08-22T10:29:34.505Z,25.50
2018-08-22T10:32:02.823Z,25.60
2018-08-22T10:34:31.141Z,25.60
2018-08-22T10:36:59.476Z,25.50
2018-08-22T10:39:27.864Z,25.40
2018-08-22T10:41:56.128Z,25.40
2018-08-22T10:44:24.443Z,25.30
2018-08-22T10:46:52.763Z,25.10
2018-08-22T10:49:21.197Z,25.10
2018-08-22T10:51:49.494Z,25.00
2018-08-22T10:54:17.826Z,25.10
2018-08-22T10:56:46.134Z,25.10
2018-08-22T10:59:14.434Z,25.00
2018-08-22T11:01:42.764Z,25.00
2018-08-22T11:04:11.164Z,24.90
2018-08-22T11:06:39.459Z,25.00
2018-08-22T11:09:08.857Z,25.10
2018-08-22T11:11:37.142Z,25.20
2018-08-22T11:14:05.443Z,25.30
2018-08-22T11:16:33.762Z,25.50
2018-08-22T11:19:02.066Z,25.70
2018-08-22T11:21:41.754Z,25.80
2018-08-22T11:24:21.548Z,25.90
2018-08-22T11:27:01.223Z,26.00
2018-08-22T11:29:40.997Z,26.00
2018-08-22T11:32:20.836Z,26.00
2018-08-22T11:34:49.595Z,25.80
2018-08-22T11:37:18.289Z,25.70
2018-08-22T11:39:49.855Z,25.60
2018-08-22T11:42:18.313Z,25.60
2018-08-22T11:44:46.647Z,25.60
2018-08-22T11:47:14.958Z,25.70
2018-08-22T11:49:43.276Z,25.70
2018-08-22T11:52:11.618Z,25.60
2018-08-22T11:54:39.946Z,25.60
2018-08-22T11:57:08.257Z,25.60
2018-08-22T11:59:36.558Z,25.40
2018-08-22T12:02:05.080Z,25.30
2018-08-22T12:04:33.411Z,25.20
2018-08-22T12:07:01.720Z,25.10
2018-08-22T12:09:30.029Z,25.20
2018-08-22T12:11:58.355Z,25.20
2018-08-22T12:14:26.669Z,25.50
2018-08-22T12:16:55.024Z,25.60
2018-08-22T12:19:23.345Z,25.80
2018-08-22T12:21:51.647Z,25.90
2018-08-22T12:24:20.083Z,26.10
2018-08-22T12:26:48.398Z,26.20
2018-08-22T12:29:16.735Z,26.20
2018-08-22T12:31:45.040Z,26.20
2018-08-22T12:34:13.354Z,26.10
2018-08-22T12:36:41.687Z,26.00
2018-08-22T12:39:10.008Z,25.90
2018-08-22T12:41:38.310Z,25.90
2018-08-22T12:44:06.626Z,25.90
2018-08-22T12:46:34.981Z,25.90
2018-08-22T12:49:03.308Z,26.00
2018-08-22T12:51:31.607Z,26.10
2018-08-22T12:53:59.911Z,26.10
2018-08-22T12:56:28.255Z,26.10
2018-08-22T12:58:56.568Z,26.10
2018-08-22T13:01:24.896Z,26.10
2018-08-22T13:03:53.218Z,26.00
2018-08-22T13:06:21.503Z,25.90
2018-08-22T13:08:49.809Z,25.90
2018-08-22T13:11:18.185Z,25.80
2018-08-22T13:13:46.448Z,25.70
2018-08-22T13:16:14.764Z,25.60
2018-08-22T13:18:43.081Z,25.70
2018-08-22T13:21:11.365Z,25.80
2018-08-22T13:23:39.775Z,25.90
2018-08-22T13:26:08.144Z,25.90
2018-08-22T13:28:36.529Z,25.80
2018-08-22T13:31:05.176Z,25.70
2018-08-22T13:33:33.499Z,25.70
2018-08-22T13:36:01.857Z,25.70
2018-08-22T13:38:30.112Z,25.70
2018-08-22T13:40:58.436Z,25.70
2018-08-22T13:43:26.798Z,25.70
2018-08-22T13:48:22.599Z,25.70
2018-08-22T13:50:50.929Z,25.80
2018-08-22T13:53:19.268Z,25.80
2018-08-22T13:55:47.651Z,25.70
2018-08-22T13:58:15.985Z,25.80
2018-08-22T14:00:44.304Z,25.80
2018-08-22T14:03:12.599Z,25.70
2018-08-22T14:05:40.922Z,25.80
2018-08-22T14:08:09.212Z,25.90
2018-08-22T14:10:37.611Z,26.00
2018-08-22T14:13:06.144Z,26.10
2018-08-22T14:15:34.460Z,26.10
2018-08-22T14:18:02.779Z,26.10
2018-08-22T14:20:31.379Z,26.10
2018-08-22T14:22:59.679Z,26.10
2018-08-22T14:25:27.979Z,25.90
2018-08-22T14:27:56.283Z,25.90
2018-08-22T14:30:24.603Z,25.90
2018-08-22T14:32:52.921Z,25.90
2018-08-22T14:35:22.169Z,25.90
2018-08-22T14:37:50.553Z,25.90
2018-08-22T14:40:18.876Z,25.90
2018-08-22T14:42:47.239Z,25.70
2018-08-22T14:45:15.541Z,25.60
2018-08-22T14:47:43.895Z,25.60
2018-08-22T14:50:12.191Z,25.60
2018-08-22T14:52:40.540Z,25.60
2018-08-22T14:55:08.865Z,25.50
2018-08-22T14:57:37.329Z,25.40
2018-08-22T15:00:06.204Z,25.40
2018-08-22T15:02:34.674Z,25.50
2018-08-22T15:05:02.844Z,25.60
2018-08-22T15:07:31.231Z,25.70
2018-08-22T15:09:59.575Z,25.80
2018-08-22T15:12:27.992Z,25.80
2018-08-22T15:14:56.332Z,25.90
2018-08-22T15:17:24.660Z,25.90
2018-08-22T15:19:53.032Z,25.90
2018-08-22T15:22:21.371Z,25.90
2018-08-22T15:24:49.671Z,25.80
2018-08-22T15:27:18.035Z,25.70
2018-08-22T15:29:46.349Z,25.60
2018-08-22T15:32:14.684Z,25.40
2018-08-22T15:34:53.393Z,25.40
2018-08-22T15:37:22.517Z,25.30
2018-08-22T15:39:50.838Z,25.20
2018-08-22T15:42:19.400Z,25.30
2018-08-22T15:44:47.767Z,25.40
2018-08-22T15:47:16.145Z,25.50
2018-08-22T15:49:45.471Z,25.60
2018-08-22T15:52:13.868Z,25.60
2018-08-22T15:54:42.172Z,25.60
2018-08-22T15:57:10.476Z,25.70
2018-08-22T15:59:38.791Z,25.70
2018-08-22T16:02:07.147Z,25.70
2018-08-22T16:04:51.495Z,25.70
2018-08-22T16:07:19.809Z,25.80
2018-08-22T16:09:48.120Z,25.90
2018-08-22T16:12:16.479Z,25.90
2018-08-22T16:14:44.798Z,25.90
2018-08-22T16:17:13.144Z,25.90
2018-08-22T16:19:41.468Z,25.90
2018-08-22T16:22:09.799Z,25.90
2018-08-22T16:24:40.300Z,25.90
2018-08-22T16:27:08.629Z,25.90
2018-08-22T16:29:37.033Z,25.80
2018-08-22T16:32:05.355Z,25.70
2018-08-22T16:34:33.676Z,25.60
2018-08-22T16:37:01.995Z,25.40
2018-08-22T16:39:40.483Z,25.20
2018-08-22T16:42:09.258Z,25.00
2018-08-22T16:44:37.564Z,24.80
2018-08-22T16:47:06.071Z,24.70
2018-08-22T16:49:34.376Z,24.50
2018-08-22T16:52:02.723Z,24.30
2018-08-22T16:54:31.083Z,24.30
2018-08-22T16:56:59.407Z,24.20
2018-08-22T16:59:27.747Z,24.10
2018-08-22T17:01:56.107Z,24.10
2018-08-22T17:04:24.402Z,24.10
2018-08-22T17:06:52.885Z,24.00
2018-08-22T17:09:21.179Z,24.00
2018-08-22T17:11:49.529Z,23.90
2018-08-22T17:14:17.836Z,23.90
2018-08-22T17:16:46.186Z,23.80
2018-08-22T17:19:14.497Z,23.80
2018-08-22T17:21:42.860Z,23.70
2018-08-22T17:24:11.163Z,23.70
2018-08-22T17:26:39.494Z,23.70
2018-08-22T17:29:07.836Z,23.60
2018-08-22T17:31:36.158Z,23.50
2018-08-22T17:34:04.514Z,23.50
2018-08-22T17:36:32.892Z,23.40
2018-08-22T17:39:02.142Z,23.30
2018-08-22T17:41:30.712Z,23.30
2018-08-22T17:44:03.310Z,23.30
2018-08-22T17:46:32.918Z,23.30
2018-08-22T17:49:01.208Z,23.30
2018-08-22T17:51:29.508Z,23.30
2018-08-22T17:53:57.795Z,23.40
2018-08-22T17:56:27.060Z,23.30
2018-08-22T17:58:56.312Z,23.30
2018-08-22T18:01:24.960Z,23.20
2018-08-22T18:03:55.485Z,23.20
2018-08-22T18:06:24.425Z,23.10
2018-08-22T18:08:52.766Z,23.00
2018-08-22T18:11:21.117Z,23.00
2018-08-22T18:13:49.483Z,22.90
2018-08-22T18:16:17.810Z,22.90
2018-08-22T18:18:46.160Z,22.80
2018-08-22T18:21:14.497Z,22.70
2018-08-22T18:23:52.565Z,22.70
2018-08-22T18:26:20.928Z,22.60
2018-08-22T18:28:49.259Z,22.50
2018-08-22T18:31:17.658Z,22.40
2018-08-22T18:33:58.955Z,22.30
2018-08-22T18:36:28.537Z,22.20
2018-08-22T18:39:06.429Z,22.10
2018-08-22T18:41:34.882Z,22.00
2018-08-22T18:44:03.519Z,21.90
2018-08-22T18:46:31.841Z,21.90
2018-08-22T18:49:01.560Z,21.80
2018-08-22T18:51:29.864Z,21.70
2018-08-22T18:53:58.175Z,21.60
2018-08-22T18:56:26.573Z,21.50
2018-08-22T18:58:54.885Z,21.40
2018-08-22T19:01:23.332Z,21.40
2018-08-22T19:03:51.688Z,21.30
2018-08-22T19:06:19.984Z,21.30
2018-08-22T19:08:48.340Z,21.20
2018-08-22T19:11:16.764Z,21.10
2018-08-22T19:13:45.132Z,21.10
2018-08-22T19:16:13.460Z,21.10
2018-08-22T19:18:41.847Z,21.00
2018-08-22T19:21:11.056Z,20.90
2018-08-22T19:23:39.392Z,20.90
2018-08-22T19:26:08.326Z,20.80
2018-08-22T19:28:54.029Z,20.80
2018-08-22T19:31:22.542Z,20.80
2018-08-22T19:33:51.034Z,20.70
2018-08-22T19:36:19.351Z,20.70
2018-08-22T19:38:47.688Z,20.60
2018-08-22T19:41:23.357Z,20.60
2018-08-22T19:43:51.753Z,20.50
2018-08-22T19:46:20.136Z,20.50
2018-08-22T19:48:48.817Z,20.50
2018-08-22T19:51:17.326Z,20.50
2018-08-22T19:53:57.877Z,20.40
2018-08-22T19:56:26.984Z,20.40
2018-08-22T19:58:55.224Z,20.30
2018-08-22T20:01:23.564Z,20.30
2018-08-22T20:03:54.837Z,20.30
2018-08-22T20:06:23.776Z,20.30
2018-08-22T20:08:54.077Z,20.20
2018-08-22T20:11:22.544Z,20.20
2018-08-22T20:13:53.425Z,20.20
2018-08-22T20:16:22.854Z,20.10
2018-08-22T20:18:54.800Z,20.10
2018-08-22T20:21:31.795Z,20.10
2018-08-22T20:24:00.665Z,20.10
2018-08-22T20:26:29.519Z,20.00
2018-08-22T20:28:59.254Z,20.00
2018-08-22T20:31:27.563Z,19.90
2018-08-22T20:34:10.115Z,19.90
2018-08-22T20:36:38.525Z,19.90
2018-08-22T20:39:09.768Z,19.90
2018-08-22T20:41:38.861Z,19.90
2018-08-22T20:44:09.975Z,19.90
2018-08-22T20:46:38.581Z,19.80
2018-08-22T20:49:06.933Z,19.80
2018-08-22T20:51:35.254Z,19.80
2018-08-22T20:54:08.752Z,19.80
2018-08-22T20:56:40.033Z,19.80
2018-08-22T20:59:08.357Z,19.70
2018-08-22T21:01:36.666Z,19.70
2018-08-22T21:04:05.005Z,19.70
2018-08-22T21:06:33.359Z,19.60
2018-08-22T21:09:01.756Z,19.60
2018-08-22T21:11:30.084Z,19.60
2018-08-22T21:13:58.439Z,19.60
2018-08-22T21:16:26.829Z,19.60
2018-08-22T21:18:55.363Z,19.50
2018-08-22T21:21:23.770Z,19.50
2018-08-22T21:23:52.435Z,19.50
2018-08-22T21:26:34.795Z,19.40
2018-08-22T21:29:03.684Z,19.40
2018-08-22T21:31:32.213Z,19.40
2018-08-22T21:34:07.389Z,19.40
2018-08-22T21:36:36.756Z,19.40
2018-08-22T21:39:10.159Z,19.30
2018-08-22T21:41:38.652Z,19.30
2018-08-22T21:44:07.331Z,19.30
2018-08-22T21:46:35.756Z,19.20
2018-08-22T21:49:09.186Z,19.20
2018-08-22T21:51:39.017Z,19.20
2018-08-22T21:54:08.426Z,19.20
2018-08-22T21:56:36.973Z,19.20
2018-08-22T21:59:05.756Z,19.10
2018-08-22T22:01:39.611Z,19.10
2018-08-22T22:04:12.445Z,19.10
2018-08-22T22:06:40.753Z,19.10
2018-08-22T22:09:09.108Z,19.00
2018-08-22T22:11:37.577Z,19.00
2018-08-22T22:14:11.260Z,19.00
2018-08-22T22:16:39.611Z,19.00
2018-08-22T22:19:08.280Z,19.00
2018-08-22T22:21:36.655Z,18.90
2018-08-22T22:24:05.317Z,18.90
2018-08-22T22:26:34.943Z,18.90
2018-08-22T22:29:03.269Z,18.90
2018-08-22T22:31:31.675Z,18.90
2018-08-22T22:34:02.006Z,18.90
2018-08-22T22:36:30.920Z,18.80
2018-08-22T22:38:59.233Z,18.80
2018-08-22T22:41:29.460Z,18.80
2018-08-22T22:43:57.788Z,18.80
2018-08-22T22:46:26.218Z,18.80
2018-08-22T22:48:54.686Z,18.80
2018-08-22T22:51:23.197Z,18.70
2018-08-22T22:53:51.679Z,18.70
2018-08-22T22:56:20.006Z,18.70
2018-08-22T22:58:48.339Z,18.70
2018-08-22T23:01:16.661Z,18.70
2018-08-22T23:03:44.992Z,18.70
2018-08-22T23:06:13.340Z,18.60
2018-08-22T23:08:41.660Z,18.60
2018-08-22T23:11:09.970Z,18.60
2018-08-22T23:13:38.301Z,18.60
2018-08-22T23:16:06.616Z,18.60
2018-08-22T23:18:35.047Z,18.60
2018-08-22T23:21:03.291Z,18.60
2018-08-22T23:23:33.788Z,18.50
2018-08-22T23:26:11.534Z,18.50
2018-08-22T23:28:40.064Z,18.50
2018-08-22T23:31:08.435Z,18.50
2018-08-22T23:33:36.804Z,18.50
2018-08-22T23:36:05.103Z,18.50
2018-08-22T23:38:34.822Z,18.50
2018-08-22T23:41:03.515Z,18.40
2018-08-22T23:43:39.579Z,18.50
2018-08-22T23:46:09.384Z,18.50
2018-08-22T23:48:38.169Z,18.50
2018-08-22T23:51:08.524Z,18.40
2018-08-22T23:53:42.139Z,18.40
2018-08-22T23:56:23.206Z,18.40
2018-08-22T23:58:52.165Z,18.40
